Time;durP1;ratioP1;P1;durP2;ratioP2;P2;SDS_P1;SDS_P2;PMS_P1;PMS_P2;Temp;Humidity;BMP_temperature;BMP_pressure;BME280_temperature;BME280_humidity;BME280_pressure;Samples;Min_cycle;Max_cycle;Signal;HPM_P1;HPM_P2
2023/08/10 00:00:12;;;;;;;;;;;15.70;99.90;;;;;;8407142;28;20291;-69
2023/08/10 00:04:14;;;;;;;;;;;15.80;99.90;;;;;;8412035;28;19940;-69
2023/08/10 00:08:15;;;;;;;;;;;15.70;99.90;;;;;;8427105;28;19924;-69
2023/08/10 00:12:17;;;;;;;;;;;15.70;99.90;;;;;;8418135;28;20284;-69
2023/08/10 00:16:18;;;;;;;;;;;15.70;99.90;;;;;;8443491;28;19932;-69
2023/08/10 00:20:20;;;;;;;;;;;15.70;99.90;;;;;;8420047;28;19928;-69
2023/08/10 00:24:22;;;;;;;;;;;15.70;99.90;;;;;;8408670;28;19974;-69
2023/08/10 00:28:23;;;;;;;;;;;15.70;99.90;;;;;;8421579;28;19973;-69
2023/08/10 00:32:25;;;;;;;;;;;15.70;99.90;;;;;;8419128;28;19931;-69
2023/08/10 00:36:27;;;;;;;;;;;15.70;99.90;;;;;;8424792;28;19932;-69
2023/08/10 00:40:28;;;;;;;;;;;15.70;99.90;;;;;;8426876;28;19970;-69
2023/08/10 00:44:30;;;;;;;;;;;15.70;99.90;;;;;;8420992;28;19932;-69
2023/08/10 00:48:32;;;;;;;;;;;15.60;99.90;;;;;;8415698;28;19928;-69
2023/08/10 00:52:34;;;;;;;;;;;15.60;99.90;;;;;;8412975;28;19924;-69
2023/08/10 00:56:36;;;;;;;;;;;15.60;99.90;;;;;;8434774;28;19951;-69
2023/08/10 01:00:38;;;;;;;;;;;15.60;99.90;;;;;;8402578;28;19932;-69
2023/08/10 01:04:41;;;;;;;;;;;15.60;99.90;;;;;;8423958;28;20295;-69
2023/08/10 01:13:52;;;;;;;;;;;15.60;99.90;;;;;;8420645;28;19954;-69
2023/08/10 01:33:20;;;;;;;;;;;15.50;99.90;;;;;;8430387;28;20387;-69
2023/08/10 01:37:21;;;;;;;;;;;15.50;99.90;;;;;;8426273;28;20368;-69
2023/08/10 01:41:23;;;;;;;;;;;15.40;99.90;;;;;;8438122;28;20296;-69
2023/08/10 01:45:25;;;;;;;;;;;15.40;99.90;;;;;;8433493;28;20068;-69
2023/08/10 01:49:29;;;;;;;;;;;15.40;99.90;;;;;;8425670;28;20280;-69
2023/08/10 01:53:32;;;;;;;;;;;15.30;99.90;;;;;;8437029;28;19932;-70
2023/08/10 01:57:34;;;;;;;;;;;15.30;99.90;;;;;;8418387;28;19969;-70
2023/08/10 02:01:36;;;;;;;;;;;15.30;99.90;;;;;;8410430;28;19978;-70
2023/08/10 02:05:37;;;;;;;;;;;15.20;99.90;;;;;;8442696;28;19981;-70
2023/08/10 02:09:40;;;;;;;;;;;15.20;99.90;;;;;;8429228;28;19928;-70
2023/08/10 02:13:41;;;;;;;;;;;15.20;99.90;;;;;;8421163;28;20411;-70
2023/08/10 02:17:43;;;;;;;;;;;15.20;99.90;;;;;;8441522;28;20257;-70
2023/08/10 02:21:45;;;;;;;;;;;15.20;99.90;;;;;;8418599;28;19969;-70
2023/08/10 02:25:46;;;;;;;;;;;15.20;99.90;;;;;;8425630;28;19935;-70
2023/08/10 02:29:48;;;;;;;;;;;15.10;99.90;;;;;;8419193;28;19928;-69
2023/08/10 02:39:09;;;;;;;;;;;15.10;99.90;;;;;;8422831;28;19969;-70
2023/08/10 02:43:11;;;;;;;;;;;15.10;99.90;;;;;;8429073;28;19936;-70
2023/08/10 02:47:13;;;;;;;;;;;15.10;99.90;;;;;;8411213;28;19935;-70
2023/08/10 02:51:15;;;;;;;;;;;15.00;99.90;;;;;;8434902;28;20303;-70
2023/08/10 02:55:17;;;;;;;;;;;15.00;99.90;;;;;;8424359;28;19951;-70
2023/08/10 02:59:19;;;;;;;;;;;14.90;99.90;;;;;;8436225;28;20018;-70
2023/08/10 03:03:21;;;;;;;;;;;14.90;99.90;;;;;;8445897;28;19969;-70
2023/08/10 03:07:23;;;;;;;;;;;14.90;99.90;;;;;;8423969;28;20425;-70
2023/08/10 03:11:25;;;;;;;;;;;14.90;99.90;;;;;;8417779;28;19924;-70
2023/08/10 03:15:27;;;;;;;;;;;14.90;99.90;;;;;;8401396;28;19924;-70
2023/08/10 03:19:28;;;;;;;;;;;14.90;99.90;;;;;;8425483;28;19958;-69
2023/08/10 03:23:30;;;;;;;;;;;14.80;99.90;;;;;;8409627;28;19924;-70
2023/08/10 03:27:32;;;;;;;;;;;14.80;99.90;;;;;;8424215;28;20292;-70
2023/08/10 03:31:34;;;;;;;;;;;14.80;99.90;;;;;;8432299;28;19924;-70
2023/08/10 03:35:35;;;;;;;;;;;14.80;99.90;;;;;;8411656;28;20359;-70
2023/08/10 03:39:37;;;;;;;;;;;14.80;99.90;;;;;;8422051;28;19925;-70
2023/08/10 03:43:39;;;;;;;;;;;14.80;99.90;;;;;;8427051;28;19928;-70
2023/08/10 03:47:40;;;;;;;;;;;14.80;99.90;;;;;;8405993;28;19924;-70
2023/08/10 03:51:42;;;;;;;;;;;14.80;99.90;;;;;;8443813;28;19925;-70
2023/08/10 03:55:44;;;;;;;;;;;14.80;99.90;;;;;;8411130;28;20288;-70
2023/08/10 03:59:45;;;;;;;;;;;14.80;99.90;;;;;;8432503;28;20383;-70
2023/08/10 04:03:48;;;;;;;;;;;14.80;99.90;;;;;;8418923;28;19978;-70
2023/08/10 04:07:50;;;;;;;;;;;14.80;99.90;;;;;;8429829;28;19931;-69
2023/08/10 04:11:52;;;;;;;;;;;14.80;99.90;;;;;;8440578;28;19923;-69
2023/08/10 04:15:54;;;;;;;;;;;14.70;99.90;;;;;;8412333;28;20443;-70
2023/08/10 04:19:56;;;;;;;;;;;14.70;99.90;;;;;;8431254;28;19924;-69
2023/08/10 04:23:58;;;;;;;;;;;14.70;99.90;;;;;;8425114;28;19932;-69
2023/08/10 04:28:01;;;;;;;;;;;14.70;99.90;;;;;;8428810;28;19985;-70
2023/08/10 04:32:03;;;;;;;;;;;14.70;99.90;;;;;;8419737;28;20445;-69
2023/08/10 04:36:05;;;;;;;;;;;14.70;99.90;;;;;;8406875;28;19932;-70
2023/08/10 04:40:09;;;;;;;;;;;14.70;99.90;;;;;;8407912;28;19924;-70
2023/08/10 04:44:11;;;;;;;;;;;14.70;99.90;;;;;;8392016;28;19928;-70
2023/08/10 04:48:13;;;;;;;;;;;14.70;99.90;;;;;;8424108;28;20387;-70
2023/08/10 04:52:15;;;;;;;;;;;14.70;99.90;;;;;;8426153;28;20276;-70
2023/08/10 04:56:16;;;;;;;;;;;14.70;99.90;;;;;;8430830;28;19939;-70
2023/08/10 05:00:19;;;;;;;;;;;14.70;99.90;;;;;;8429826;28;19977;-70
2023/08/10 05:04:21;;;;;;;;;;;14.70;99.90;;;;;;8436290;28;19947;-70
2023/08/10 05:08:24;;;;;;;;;;;14.70;99.90;;;;;;8424355;28;19928;-70
2023/08/10 05:12:26;;;;;;;;;;;14.70;99.90;;;;;;8419673;28;19967;-70
2023/08/10 05:16:28;;;;;;;;;;;14.70;99.90;;;;;;8437546;27;19924;-70
2023/08/10 05:20:29;;;;;;;;;;;14.80;99.90;;;;;;8438593;28;19935;-69
2023/08/10 05:24:32;;;;;;;;;;;14.90;99.90;;;;;;8439443;27;19977;-70
2023/08/10 05:28:34;;;;;;;;;;;15.00;99.90;;;;;;8438395;28;19975;-70
2023/08/10 05:32:36;;;;;;;;;;;15.00;99.90;;;;;;8443292;27;20383;-70
2023/08/10 05:36:37;;;;;;;;;;;15.10;99.90;;;;;;8433098;28;19988;-70
2023/08/10 05:40:39;;;;;;;;;;;15.20;99.90;;;;;;8437674;28;19977;-69
2023/08/10 05:44:41;;;;;;;;;;;15.30;99.90;;;;;;8427513;28;19924;-70
2023/08/10 05:48:42;;;;;;;;;;;15.40;99.90;;;;;;8456130;28;19962;-70
2023/08/10 05:52:46;;;;;;;;;;;15.50;99.90;;;;;;8428628;28;19927;-70
2023/08/10 05:56:48;;;;;;;;;;;15.60;99.90;;;;;;8437554;28;19923;-70
2023/08/10 06:00:50;;;;;;;;;;;15.70;99.90;;;;;;8444039;28;20455;-70
2023/08/10 06:04:52;;;;;;;;;;;15.90;99.90;;;;;;8437553;28;19924;-70
2023/08/10 06:08:54;;;;;;;;;;;16.00;99.90;;;;;;8431843;28;19924;-70
2023/08/10 06:12:55;;;;;;;;;;;16.10;99.90;;;;;;8456882;27;19923;-70
2023/08/10 06:16:57;;;;;;;;;;;16.20;99.90;;;;;;8452314;28;19973;-69
2023/08/10 06:20:59;;;;;;;;;;;16.20;99.90;;;;;;8445811;28;19986;-70
2023/08/10 06:25:00;;;;;;;;;;;16.30;99.90;;;;;;8426911;28;19931;-70
2023/08/10 06:29:02;;;;;;;;;;;16.40;99.90;;;;;;8451529;28;19928;-70
2023/08/10 06:33:04;;;;;;;;;;;16.50;99.90;;;;;;8454594;28;19959;-70
2023/08/10 06:37:06;;;;;;;;;;;16.60;99.90;;;;;;8428781;28;19931;-70
2023/08/10 06:41:08;;;;;;;;;;;16.70;99.90;;;;;;8441201;28;19932;-70
2023/08/10 06:45:10;;;;;;;;;;;16.80;99.90;;;;;;8443584;28;19935;-70
2023/08/10 06:49:11;;;;;;;;;;;16.90;99.90;;;;;;8426393;28;19929;-70
2023/08/10 06:53:13;;;;;;;;;;;17.00;99.90;;;;;;8437805;28;20303;-70
2023/08/10 06:57:15;;;;;;;;;;;17.10;99.90;;;;;;8412816;28;19924;-69
2023/08/10 07:01:16;;;;;;;;;;;17.20;99.90;;;;;;8420479;28;20347;-70
2023/08/10 07:05:18;;;;;;;;;;;17.30;99.90;;;;;;8419481;28;19924;-70
2023/08/10 07:09:22;;;;;;;;;;;17.40;99.90;;;;;;8418054;28;19932;-70
2023/08/10 07:13:24;;;;;;;;;;;17.50;99.90;;;;;;8401768;28;19924;-70
2023/08/10 07:17:26;;;;;;;;;;;17.60;99.90;;;;;;8398211;28;19924;-70
2023/08/10 07:21:27;;;;;;;;;;;17.70;99.90;;;;;;8410574;28;21918;-70
2023/08/10 07:25:31;;;;;;;;;;;17.70;99.90;;;;;;8405066;28;19923;-70
2023/08/10 07:29:33;;;;;;;;;;;17.80;99.90;;;;;;8405685;28;19932;-70
2023/08/10 07:33:34;;;;;;;;;;;17.90;99.90;;;;;;8407290;28;19925;-70
2023/08/10 07:37:36;;;;;;;;;;;18.00;99.90;;;;;;8416801;27;19932;-70
2023/08/10 07:41:38;;;;;;;;;;;18.00;99.90;;;;;;8409977;28;20273;-70
2023/08/10 07:45:39;;;;;;;;;;;18.10;99.90;;;;;;8408003;28;19932;-70
2023/08/10 07:49:42;;;;;;;;;;;18.20;99.90;;;;;;8429140;27;19924;-70
2023/08/10 07:53:44;;;;;;;;;;;18.20;99.90;;;;;;8409976;28;19936;-70
2023/08/10 07:57:47;;;;;;;;;;;18.20;99.90;;;;;;8406699;28;21307;-70
2023/08/10 08:01:49;;;;;;;;;;;18.30;99.90;;;;;;8410858;28;19928;-70
2023/08/10 08:05:50;;;;;;;;;;;18.20;99.90;;;;;;8404781;28;19969;-70
2023/08/10 08:09:55;;;;;;;;;;;18.20;99.90;;;;;;8408717;28;19932;-70
2023/08/10 08:13:57;;;;;;;;;;;18.20;99.90;;;;;;8401292;28;20299;-70
2023/08/10 08:18:17;;;;;;;;;;;18.10;99.90;;;;;;8403907;28;19924;-70
2023/08/10 08:22:19;;;;;;;;;;;18.10;99.90;;;;;;8431850;27;20326;-70
2023/08/10 08:26:23;;;;;;;;;;;18.10;99.90;;;;;;8399006;28;19928;-70
2023/08/10 08:30:27;;;;;;;;;;;18.10;99.90;;;;;;8416692;28;20335;-70
2023/08/10 08:34:31;;;;;;;;;;;18.10;99.90;;;;;;8423741;28;19924;-70
2023/08/10 08:38:32;;;;;;;;;;;18.10;99.90;;;;;;8409194;28;20436;-70
2023/08/10 08:42:34;;;;;;;;;;;18.20;99.90;;;;;;8420494;28;19928;-70
2023/08/10 08:46:38;;;;;;;;;;;18.20;99.90;;;;;;8417405;28;19925;-70
2023/08/10 08:50:40;;;;;;;;;;;18.30;99.90;;;;;;8426936;28;19931;-69
2023/08/10 08:54:42;;;;;;;;;;;18.30;99.90;;;;;;8418869;28;19928;-70
2023/08/10 08:58:44;;;;;;;;;;;18.30;99.90;;;;;;8418449;28;19924;-70
2023/08/10 09:02:46;;;;;;;;;;;18.30;99.90;;;;;;8404866;28;20329;-70
2023/08/10 09:06:48;;;;;;;;;;;18.30;99.90;;;;;;8412682;28;20027;-70
2023/08/10 09:10:50;;;;;;;;;;;18.40;99.90;;;;;;8416461;28;19939;-69
2023/08/10 09:15:03;;;;;;;;;;;18.40;99.90;;;;;;8415642;28;19924;-69
2023/08/10 09:19:10;;;;;;;;;;;18.60;99.90;;;;;;8419565;28;19970;-70
2023/08/10 09:23:18;;;;;;;;;;;18.70;99.90;;;;;;8411227;28;19928;-69
2023/08/10 09:27:20;;;;;;;;;;;18.80;99.90;;;;;;8417578;28;20331;-69
2023/08/10 09:31:26;;;;;;;;;;;18.90;99.90;;;;;;8410331;28;19978;-69
2023/08/10 09:35:29;;;;;;;;;;;19.00;99.90;;;;;;8387797;28;19947;-70
2023/08/10 09:39:32;;;;;;;;;;;19.10;99.90;;;;;;8408086;28;19974;-69
2023/08/10 09:43:38;;;;;;;;;;;19.20;99.90;;;;;;8408666;28;23012;-70
2023/08/10 09:47:40;;;;;;;;;;;19.20;99.90;;;;;;8405217;28;19925;-70
2023/08/10 09:51:42;;;;;;;;;;;19.30;99.90;;;;;;8393712;28;20282;-69
2023/08/10 09:55:44;;;;;;;;;;;19.40;99.90;;;;;;8411853;28;19928;-69
2023/08/10 09:59:46;;;;;;;;;;;19.40;99.90;;;;;;8393724;28;20284;-70
2023/08/10 10:03:48;;;;;;;;;;;19.50;99.90;;;;;;8411821;28;19932;-70
2023/08/10 10:07:50;;;;;;;;;;;19.50;99.90;;;;;;8405094;28;20448;-70
2023/08/10 10:11:54;;;;;;;;;;;19.60;99.90;;;;;;8388760;28;20315;-70
2023/08/10 10:15:56;;;;;;;;;;;19.60;99.90;;;;;;8407335;28;19932;-70
2023/08/10 10:19:58;;;;;;;;;;;19.70;99.90;;;;;;8388423;28;19936;-70
2023/08/10 10:24:03;;;;;;;;;;;19.70;99.90;;;;;;8397610;28;20333;-70
2023/08/10 10:28:16;;;;;;;;;;;19.80;99.90;;;;;;8401563;28;19932;-69
2023/08/10 10:32:21;;;;;;;;;;;19.90;99.90;;;;;;8400043;28;19935;-70
2023/08/10 10:36:23;;;;;;;;;;;20.00;99.90;;;;;;8397492;28;19932;-70
2023/08/10 10:40:26;;;;;;;;;;;20.20;99.90;;;;;;8407145;28;21362;-70
2023/08/10 10:44:46;;;;;;;;;;;20.30;99.90;;;;;;8404179;28;19924;-69
2023/08/10 10:48:49;;;;;;;;;;;20.30;99.90;;;;;;8399275;28;19927;-70
2023/08/10 10:52:56;;;;;;;;;;;20.30;99.90;;;;;;8397437;28;19981;-70
2023/08/10 10:56:59;;;;;;;;;;;20.30;99.90;;;;;;8410216;27;19986;-70
2023/08/10 11:01:01;;;;;;;;;;;20.30;99.90;;;;;;8406177;28;19925;-69
2023/08/10 11:05:03;;;;;;;;;;;20.30;99.90;;;;;;8398949;28;20190;-70
2023/08/10 11:09:07;;;;;;;;;;;20.30;99.90;;;;;;8404832;28;19981;-70
2023/08/10 11:13:11;;;;;;;;;;;20.30;99.90;;;;;;8406849;28;19931;-70
2023/08/10 11:17:13;;;;;;;;;;;20.30;99.90;;;;;;8397179;28;19924;-70
2023/08/10 11:21:15;;;;;;;;;;;20.30;99.90;;;;;;8421945;28;19951;-70
2023/08/10 11:25:18;;;;;;;;;;;20.30;99.90;;;;;;8404738;28;19929;-70
2023/08/10 11:29:20;;;;;;;;;;;20.30;99.90;;;;;;8409508;28;19928;-70
2023/08/10 11:33:21;;;;;;;;;;;20.40;99.90;;;;;;8408208;28;20397;-70
2023/08/10 11:37:30;;;;;;;;;;;20.40;99.90;;;;;;8422643;28;19928;-70
2023/08/10 11:41:41;;;;;;;;;;;20.40;99.90;;;;;;8407088;28;19924;-69
2023/08/10 11:45:42;;;;;;;;;;;20.50;99.90;;;;;;8402692;28;20438;-69
2023/08/10 11:49:44;;;;;;;;;;;20.50;99.90;;;;;;8397589;28;19955;-70
2023/08/10 11:53:47;;;;;;;;;;;20.50;99.90;;;;;;8404305;28;19963;-70
2023/08/10 11:57:51;;;;;;;;;;;20.50;99.90;;;;;;8401460;28;19927;-70
2023/08/10 12:01:54;;;;;;;;;;;20.50;99.90;;;;;;8404180;28;19928;-70
2023/08/10 12:06:00;;;;;;;;;;;20.60;99.90;;;;;;8384958;28;19924;-70
2023/08/10 12:10:03;;;;;;;;;;;20.60;99.90;;;;;;8410530;28;19928;-70
2023/08/10 12:14:08;;;;;;;;;;;20.60;99.90;;;;;;8405837;28;19928;-69
2023/08/10 12:18:10;;;;;;;;;;;20.70;99.90;;;;;;8402023;28;20321;-70
2023/08/10 12:22:11;;;;;;;;;;;20.80;99.90;;;;;;8388282;28;19970;-69
2023/08/10 12:26:13;;;;;;;;;;;20.90;99.90;;;;;;8404647;28;20399;-70
2023/08/10 12:30:15;;;;;;;;;;;21.00;99.90;;;;;;8400888;28;19967;-70
2023/08/10 12:34:17;;;;;;;;;;;21.10;99.90;;;;;;8398645;28;19993;-69
2023/08/10 12:38:18;;;;;;;;;;;21.10;99.90;;;;;;8407551;28;20285;-69
2023/08/10 12:42:20;;;;;;;;;;;21.20;99.90;;;;;;8398633;28;19931;-69
2023/08/10 12:46:22;;;;;;;;;;;21.30;99.90;;;;;;8397305;28;19932;-70
2023/08/10 12:50:24;;;;;;;;;;;21.30;99.90;;;;;;8406470;28;19924;-70
2023/08/10 12:54:25;;;;;;;;;;;21.30;99.90;;;;;;8397698;28;19929;-69
2023/08/10 12:58:27;;;;;;;;;;;21.30;99.90;;;;;;8403841;28;19932;-70
2023/08/10 13:02:29;;;;;;;;;;;21.40;99.90;;;;;;8410516;28;20367;-70
2023/08/10 13:06:34;;;;;;;;;;;21.50;99.90;;;;;;8412394;28;19924;-69
2023/08/10 13:10:36;;;;;;;;;;;21.50;99.90;;;;;;8415424;28;19977;-69
2023/08/10 13:14:38;;;;;;;;;;;21.50;99.90;;;;;;8406455;28;20391;-70
2023/08/10 13:18:40;;;;;;;;;;;21.50;99.90;;;;;;8402475;28;19932;-70
2023/08/10 13:22:44;;;;;;;;;;;21.60;99.90;;;;;;8414193;28;19932;-70
2023/08/10 13:26:45;;;;;;;;;;;21.60;99.90;;;;;;8410819;28;19982;-70
2023/08/10 13:30:47;;;;;;;;;;;21.60;99.90;;;;;;8419875;28;19929;-70
2023/08/10 13:34:49;;;;;;;;;;;21.70;99.90;;;;;;8405319;28;19924;-70
2023/08/10 13:38:51;;;;;;;;;;;21.70;99.90;;;;;;8409954;28;19925;-70
2023/08/10 13:42:52;;;;;;;;;;;21.70;99.90;;;;;;8410301;28;19939;-70
2023/08/10 13:46:54;;;;;;;;;;;21.80;99.90;;;;;;8413444;28;19938;-70
2023/08/10 13:50:56;;;;;;;;;;;21.90;99.90;;;;;;8425249;27;20441;-70
2023/08/10 13:54:58;;;;;;;;;;;22.00;99.90;;;;;;8426317;27;19928;-70
2023/08/10 13:59:00;;;;;;;;;;;22.10;99.90;;;;;;8407433;28;19936;-70
2023/08/10 14:03:03;;;;;;;;;;;22.20;99.90;;;;;;8392081;28;19924;-70
2023/08/10 14:07:06;;;;;;;;;;;22.20;99.90;;;;;;8421193;27;20015;-70
2023/08/10 14:11:07;;;;;;;;;;;22.20;99.90;;;;;;8407373;28;19928;-71
2023/08/10 14:15:09;;;;;;;;;;;22.10;99.90;;;;;;8387158;28;19932;-69
2023/08/10 14:19:16;;;;;;;;;;;22.10;99.90;;;;;;8414659;27;19924;-70
2023/08/10 14:23:17;;;;;;;;;;;22.10;99.90;;;;;;8399813;28;19928;-69
2023/08/10 14:27:19;;;;;;;;;;;22.20;99.90;;;;;;8419038;28;19932;-70
2023/08/10 14:31:21;;;;;;;;;;;22.20;99.90;;;;;;8381350;28;19924;-70
2023/08/10 14:35:23;;;;;;;;;;;22.20;99.90;;;;;;8391006;28;20195;-70
2023/08/10 14:39:25;;;;;;;;;;;22.30;99.90;;;;;;8416940;27;19940;-70
2023/08/10 14:43:26;;;;;;;;;;;22.30;99.90;;;;;;8406418;28;19924;-69
2023/08/10 14:47:28;;;;;;;;;;;22.40;99.90;;;;;;8422528;27;19925;-69
2023/08/10 14:51:30;;;;;;;;;;;22.40;99.90;;;;;;8399743;28;19932;-69
2023/08/10 14:55:31;;;;;;;;;;;22.50;99.90;;;;;;8396998;28;19991;-70
2023/08/10 14:59:35;;;;;;;;;;;22.50;99.90;;;;;;8400911;28;19955;-70
2023/08/10 15:03:36;;;;;;;;;;;22.60;99.90;;;;;;8397809;28;19924;-70
2023/08/10 15:07:38;;;;;;;;;;;22.60;99.90;;;;;;8416558;28;19924;-70
2023/08/10 15:11:40;;;;;;;;;;;22.70;99.90;;;;;;8415177;27;19939;-70
2023/08/10 15:15:45;;;;;;;;;;;22.80;99.90;;;;;;8410047;28;19928;-69
2023/08/10 15:19:47;;;;;;;;;;;23.00;99.90;;;;;;8403954;28;19928;-70
2023/08/10 15:23:49;;;;;;;;;;;23.10;99.90;;;;;;8402815;28;19924;-70
2023/08/10 15:27:51;;;;;;;;;;;23.20;99.90;;;;;;8403093;28;19925;-70
2023/08/10 15:31:52;;;;;;;;;;;23.40;99.90;;;;;;8401895;28;19924;-70
2023/08/10 15:35:54;;;;;;;;;;;23.60;99.90;;;;;;8398374;28;19925;-70
2023/08/10 15:39:56;;;;;;;;;;;23.80;99.90;;;;;;8398383;28;20051;-70
2023/08/10 15:43:57;;;;;;;;;;;24.00;99.90;;;;;;8400651;28;20430;-70
2023/08/10 15:47:59;;;;;;;;;;;24.10;99.90;;;;;;8393962;28;19925;-70
2023/08/10 15:52:01;;;;;;;;;;;24.20;99.90;;;;;;8391773;28;19933;-70
2023/08/10 15:56:30;;;;;;;;;;;24.30;99.90;;;;;;8397669;28;19928;-70
2023/08/10 16:00:32;;;;;;;;;;;24.60;99.90;;;;;;8392223;28;19928;-70
2023/08/10 16:04:34;;;;;;;;;;;24.90;99.90;;;;;;8395168;28;19940;-70
2023/08/10 16:08:36;;;;;;;;;;;25.30;99.90;;;;;;8393534;28;19925;-70
2023/08/10 16:12:38;;;;;;;;;;;25.70;99.90;;;;;;8400915;28;19992;-70
2023/08/10 16:16:40;;;;;;;;;;;26.00;99.90;;;;;;8398079;28;19931;-69
2023/08/10 16:20:44;;;;;;;;;;;26.30;99.90;;;;;;8404720;28;20304;-69
2023/08/10 16:24:45;;;;;;;;;;;26.50;99.90;;;;;;8397738;28;19928;-69
2023/08/10 16:28:47;;;;;;;;;;;26.70;99.90;;;;;;8397790;28;19928;-69
2023/08/10 16:32:49;;;;;;;;;;;26.90;99.90;;;;;;8376923;28;20668;-69
2023/08/10 16:36:51;;;;;;;;;;;27.00;99.90;;;;;;8399173;28;19928;-69
2023/08/10 16:40:53;;;;;;;;;;;27.00;99.90;;;;;;8395051;28;20287;-69
2023/08/10 16:44:54;;;;;;;;;;;27.10;99.90;;;;;;8402180;28;19936;-69
2023/08/10 16:48:56;;;;;;;;;;;27.20;99.90;;;;;;8398249;28;20287;-69
2023/08/10 16:52:58;;;;;;;;;;;27.30;99.90;;;;;;8387466;28;19925;-69
2023/08/10 16:56:59;;;;;;;;;;;27.20;99.90;;;;;;8368264;28;19925;-69
2023/08/10 17:01:01;;;;;;;;;;;27.10;99.90;;;;;;8361286;28;19937;-69
2023/08/10 17:05:03;;;;;;;;;;;27.00;99.90;;;;;;8370043;28;19939;-69
2023/08/10 17:09:05;;;;;;;;;;;26.80;99.90;;;;;;8365319;28;20022;-69
2023/08/10 17:13:06;;;;;;;;;;;26.70;99.90;;;;;;8366667;28;19925;-69
2023/08/10 17:17:08;;;;;;;;;;;26.40;99.90;;;;;;8367401;28;19925;-69
2023/08/10 17:21:10;;;;;;;;;;;26.10;99.90;;;;;;8369285;28;20392;-70
2023/08/10 17:25:11;;;;;;;;;;;25.90;99.90;;;;;;8365427;28;20423;-70
2023/08/10 17:29:13;;;;;;;;;;;25.70;99.90;;;;;;8367611;28;20320;-70
2023/08/10 17:33:22;;;;;;;;;;;25.60;99.90;;;;;;8357032;28;20313;-69
2023/08/10 17:37:27;;;;;;;;;;;25.40;99.90;;;;;;8377350;28;20900;-70
2023/08/10 17:41:29;;;;;;;;;;;25.20;99.90;;;;;;8362365;28;20038;-70
2023/08/10 17:45:31;;;;;;;;;;;25.00;99.90;;;;;;8365843;28;20272;-70
2023/08/10 17:49:32;;;;;;;;;;;24.90;99.90;;;;;;8388845;28;19971;-70
2023/08/10 17:53:34;;;;;;;;;;;24.80;99.90;;;;;;8385210;28;19940;-70
2023/08/10 17:57:36;;;;;;;;;;;24.70;99.90;;;;;;8403396;28;19925;-70
2023/08/10 18:01:41;;;;;;;;;;;24.50;99.90;;;;;;8415458;28;19924;-70
2023/08/10 18:05:43;;;;;;;;;;;24.40;99.90;;;;;;8404997;28;19937;-70
2023/08/10 18:09:45;;;;;;;;;;;24.30;99.90;;;;;;8400076;28;20303;-70
2023/08/10 18:13:49;;;;;;;;;;;24.20;99.90;;;;;;8404586;28;19928;-69
2023/08/10 18:17:50;;;;;;;;;;;24.00;99.90;;;;;;8401953;28;19928;-68
2023/08/10 18:21:52;;;;;;;;;;;23.90;99.90;;;;;;8401022;28;19928;-68
2023/08/10 18:25:55;;;;;;;;;;;23.80;99.90;;;;;;8395511;28;19979;-69
2023/08/10 18:29:56;;;;;;;;;;;23.70;99.90;;;;;;8395065;28;19986;-70
2023/08/10 18:33:58;;;;;;;;;;;23.50;99.90;;;;;;8394316;28;19940;-70
2023/08/10 18:38:00;;;;;;;;;;;23.40;99.90;;;;;;8393194;28;19932;-69
2023/08/10 18:42:01;;;;;;;;;;;23.30;99.90;;;;;;8398535;28;19936;-69
2023/08/10 18:46:03;;;;;;;;;;;23.20;99.90;;;;;;8398881;28;19933;-68
2023/08/10 18:50:05;;;;;;;;;;;23.10;99.90;;;;;;8381589;28;19967;-69
2023/08/10 18:54:07;;;;;;;;;;;23.00;99.90;;;;;;8393881;28;19993;-69
2023/08/10 18:58:09;;;;;;;;;;;22.80;99.90;;;;;;8400230;28;19931;-69
2023/08/10 19:02:11;;;;;;;;;;;22.70;99.90;;;;;;8396934;28;19939;-69
2023/08/10 19:06:12;;;;;;;;;;;22.60;99.90;;;;;;8401450;28;19932;-69
2023/08/10 19:10:14;;;;;;;;;;;22.50;99.90;;;;;;8395082;28;19928;-69
2023/08/10 19:14:16;;;;;;;;;;;22.40;99.90;;;;;;8408808;27;19932;-69
2023/08/10 19:18:17;;;;;;;;;;;22.30;99.90;;;;;;8397068;28;20331;-69
2023/08/10 19:22:19;;;;;;;;;;;22.20;99.90;;;;;;8391005;28;20380;-69
2023/08/10 19:26:21;;;;;;;;;;;22.10;99.90;;;;;;8394077;28;19943;-69
2023/08/10 19:30:22;;;;;;;;;;;22.00;99.90;;;;;;8394089;28;19924;-69
2023/08/10 19:34:24;;;;;;;;;;;21.90;99.90;;;;;;8390668;28;20388;-69
2023/08/10 19:38:26;;;;;;;;;;;21.80;99.90;;;;;;8395389;28;19928;-69
2023/08/10 19:42:27;;;;;;;;;;;21.70;99.90;;;;;;8393217;28;19936;-69
2023/08/10 19:46:29;;;;;;;;;;;21.70;99.90;;;;;;8394397;28;19932;-69
2023/08/10 19:50:31;;;;;;;;;;;21.60;99.90;;;;;;8391933;28;19928;-69
2023/08/10 19:54:33;;;;;;;;;;;21.50;99.90;;;;;;8403968;27;20296;-69
2023/08/10 19:58:34;;;;;;;;;;;21.50;99.90;;;;;;8393941;28;19978;-69
2023/08/10 20:02:36;;;;;;;;;;;21.40;99.90;;;;;;8392431;28;19966;-69
2023/08/10 20:06:38;;;;;;;;;;;21.30;99.90;;;;;;8391363;28;19987;-68
2023/08/10 20:10:39;;;;;;;;;;;21.30;99.90;;;;;;8385343;28;19924;-70
2023/08/10 20:14:41;;;;;;;;;;;21.20;99.90;;;;;;8393050;28;19982;-69
2023/08/10 20:18:43;;;;;;;;;;;21.10;99.90;;;;;;8387781;28;19928;-69
2023/08/10 20:22:44;;;;;;;;;;;21.10;99.90;;;;;;8384438;28;23866;-69
2023/08/10 20:26:46;;;;;;;;;;;21.00;99.90;;;;;;8388860;28;19978;-69
2023/08/10 20:30:48;;;;;;;;;;;21.00;99.90;;;;;;8389590;28;19986;-69
2023/08/10 20:34:49;;;;;;;;;;;20.90;99.90;;;;;;8401077;28;20281;-69
2023/08/10 20:38:51;;;;;;;;;;;20.80;99.90;;;;;;8383933;28;19967;-69
2023/08/10 20:42:53;;;;;;;;;;;20.70;99.90;;;;;;8385776;28;19925;-69
2023/08/10 20:46:56;;;;;;;;;;;20.60;99.90;;;;;;8404261;28;20346;-69
2023/08/10 20:50:57;;;;;;;;;;;20.60;99.90;;;;;;8383124;28;19929;-69
2023/08/10 20:54:59;;;;;;;;;;;20.50;99.90;;;;;;8387865;28;19935;-69
2023/08/10 20:59:01;;;;;;;;;;;20.50;99.90;;;;;;8390393;28;19928;-69
2023/08/10 21:03:03;;;;;;;;;;;20.50;99.90;;;;;;8405555;28;19935;-69
2023/08/10 21:07:06;;;;;;;;;;;20.40;99.90;;;;;;8415486;28;20448;-69
2023/08/10 21:11:08;;;;;;;;;;;20.40;99.90;;;;;;8414648;28;19924;-69
2023/08/10 21:15:09;;;;;;;;;;;20.30;99.90;;;;;;8420350;28;19931;-69
2023/08/10 21:19:11;;;;;;;;;;;20.20;99.90;;;;;;8412096;28;20329;-69
2023/08/10 21:23:13;;;;;;;;;;;20.20;99.90;;;;;;8404362;28;19932;-69
2023/08/10 21:27:15;;;;;;;;;;;20.20;99.90;;;;;;8404941;28;19932;-69
2023/08/10 21:31:16;;;;;;;;;;;20.10;99.90;;;;;;8415348;28;19928;-68
2023/08/10 21:35:18;;;;;;;;;;;20.00;99.90;;;;;;8429751;28;19977;-69
2023/08/10 21:39:21;;;;;;;;;;;20.00;99.90;;;;;;8412142;28;19927;-69
2023/08/10 21:43:23;;;;;;;;;;;19.90;99.90;;;;;;8422134;28;19930;-69
2023/08/10 21:47:24;;;;;;;;;;;19.90;99.90;;;;;;8418223;28;19960;-68
2023/08/10 21:51:26;;;;;;;;;;;19.80;99.90;;;;;;8419255;28;20421;-69
2023/08/10 21:55:28;;;;;;;;;;;19.80;99.90;;;;;;8419433;28;19924;-68
2023/08/10 21:59:30;;;;;;;;;;;19.70;99.90;;;;;;8413391;28;19932;-68
2023/08/10 22:03:32;;;;;;;;;;;19.70;99.90;;;;;;8429646;28;19936;-68
2023/08/10 22:07:34;;;;;;;;;;;19.70;99.90;;;;;;8426407;27;19978;-68
2023/08/10 22:11:36;;;;;;;;;;;19.70;99.90;;;;;;8420644;28;20365;-69
2023/08/10 22:15:38;;;;;;;;;;;19.70;99.90;;;;;;8411103;28;19932;-68
2023/08/10 22:19:39;;;;;;;;;;;19.60;99.90;;;;;;8412193;28;19969;-68
2023/08/10 22:23:41;;;;;;;;;;;19.60;99.90;;;;;;8417268;28;19954;-68
2023/08/10 22:27:43;;;;;;;;;;;19.60;99.90;;;;;;8428561;28;19931;-68
2023/08/10 22:31:44;;;;;;;;;;;19.60;99.90;;;;;;8419946;28;19928;-68
2023/08/10 22:35:46;;;;;;;;;;;19.60;99.90;;;;;;8429510;28;19935;-68
2023/08/10 22:39:47;;;;;;;;;;;19.60;99.90;;;;;;8417177;28;19924;-68
2023/08/10 22:43:49;;;;;;;;;;;19.70;99.90;;;;;;8410824;28;19924;-69
2023/08/10 22:47:51;;;;;;;;;;;19.70;99.90;;;;;;8408005;28;20376;-69
2023/08/10 22:51:53;;;;;;;;;;;19.70;99.90;;;;;;8423600;28;20015;-69
2023/08/10 22:55:55;;;;;;;;;;;19.70;99.90;;;;;;8410705;28;19928;-69
2023/08/10 22:59:56;;;;;;;;;;;19.70;99.90;;;;;;8404973;28;19935;-68
2023/08/10 23:03:58;;;;;;;;;;;19.70;99.90;;;;;;8434855;28;19935;-68
2023/08/10 23:08:00;;;;;;;;;;;19.70;99.90;;;;;;8416260;28;20578;-68
2023/08/10 23:12:02;;;;;;;;;;;19.70;99.90;;;;;;8427433;27;20405;-68
2023/08/10 23:16:03;;;;;;;;;;;19.70;99.90;;;;;;8413607;28;19928;-68
2023/08/10 23:20:11;;;;;;;;;;;19.60;99.90;;;;;;8423154;28;20375;-68
2023/08/10 23:24:13;;;;;;;;;;;19.60;99.90;;;;;;8406013;28;20268;-68
2023/08/10 23:28:15;;;;;;;;;;;19.60;99.90;;;;;;8419990;28;19975;-68
2023/08/10 23:32:17;;;;;;;;;;;19.50;99.90;;;;;;8428165;28;19928;-68
2023/08/10 23:36:19;;;;;;;;;;;19.50;99.90;;;;;;8414319;28;19931;-68
2023/08/10 23:40:20;;;;;;;;;;;19.50;99.90;;;;;;8431625;28;20428;-68
2023/08/10 23:44:23;;;;;;;;;;;19.40;99.90;;;;;;8389368;28;20442;-68
2023/08/10 23:48:25;;;;;;;;;;;19.40;99.90;;;;;;8415156;28;19925;-68
2023/08/10 23:52:29;;;;;;;;;;;19.40;99.90;;;;;;8427054;27;20750;-68